Time;durP1;ratioP1;P1;durP2;ratioP2;P2;SDS_P1;SDS_P2;PMS_P1;PMS_P2;Temp;Humidity;BMP_temperature;BMP_pressure;BME280_temperature;BME280_humidity;BME280_pressure;Samples;Min_cycle;Max_cycle;Signal;HPM_P1;HPM_P2
2022/07/11 00:00:16;;;;;;;3.3;1.75;;;;;;;12.67;56.9502;95934.24;;;;
2022/07/11 00:01:16;;;;;;;3.3;1.75;;;;;;;12.67;56.9502;95934.24;;;;
2022/07/11 00:02:17;;;;;;;3.3;1.75;;;;;;;12.67;56.9502;95934.24;;;;
2022/07/11 00:03:17;;;;;;;3.3;1.75;;;;;;;12.67;56.9502;95934.24;;;;
2022/07/11 00:04:18;;;;;;;3.3;1.75;;;;;;;12.67;56.9502;95934.24;;;;
2022/07/11 00:05:19;;;;;;;2.8;1.6;;;;;;;12.95;57.08398;95928.13;;;;
2022/07/11 00:06:20;;;;;;;2.8;1.6;;;;;;;12.95;57.08398;95928.13;;;;
2022/07/11 00:07:20;;;;;;;2.8;1.6;;;;;;;12.95;57.08398;95928.13;;;;
2022/07/11 00:08:21;;;;;;;2.8;1.6;;;;;;;12.95;57.08398;95928.13;;;;
2022/07/11 00:09:21;;;;;;;2.8;1.6;;;;;;;12.95;57.08398;95928.13;;;;
2022/07/11 00:10:22;;;;;;;2.8;1.6;;;;;;;12.95;57.08398;95928.13;;;;
2022/07/11 00:11:22;;;;;;;2.8;1.6;;;;;;;12.95;57.08398;95928.13;;;;
2022/07/11 00:12:26;;;;;;;2.8;1.6;;;;;;;12.95;57.08398;95928.13;;;;
2022/07/11 00:13:26;;;;;;;2.8;1.6;;;;;;;12.95;57.08398;95928.13;;;;
2022/07/11 00:14:27;;;;;;;2.8;1.6;;;;;;;12.95;57.08398;95928.13;;;;
2022/07/11 00:15:28;;;;;;;3.55;1.8;;;;;;;13.12;57.16211;95913.78;;;;
2022/07/11 00:16:28;;;;;;;3.55;1.8;;;;;;;13.12;57.16211;95913.78;;;;
2022/07/11 00:17:29;;;;;;;3.55;1.8;;;;;;;13.12;57.16211;95913.78;;;;
2022/07/11 00:18:29;;;;;;;3.55;1.8;;;;;;;13.12;57.16211;95913.78;;;;
2022/07/11 00:19:30;;;;;;;3.55;1.8;;;;;;;13.12;57.16211;95913.78;;;;
2022/07/11 00:20:30;;;;;;;3.55;1.8;;;;;;;13.12;57.16211;95913.78;;;;
2022/07/11 00:21:31;;;;;;;3.55;1.8;;;;;;;13.12;57.16211;95913.78;;;;
2022/07/11 00:22:32;;;;;;;3.55;1.8;;;;;;;13.12;57.16211;95913.78;;;;
2022/07/11 00:23:32;;;;;;;3.55;1.8;;;;;;;13.12;57.16211;95913.78;;;;
2022/07/11 00:24:33;;;;;;;3.55;1.8;;;;;;;13.12;57.16211;95913.78;;;;
2022/07/11 00:25:34;;;;;;;3.55;1.8;;;;;;;13.12;57.16211;95913.78;;;;
2022/07/11 00:26:35;;;;;;;2.95;1.8;;;;;;;13.33;57.34082;95904.17;;;;
2022/07/11 00:27:35;;;;;;;2.95;1.8;;;;;;;13.33;57.34082;95904.17;;;;
2022/07/11 00:28:36;;;;;;;2.95;1.8;;;;;;;13.33;57.34082;95904.17;;;;
2022/07/11 00:29:36;;;;;;;2.95;1.8;;;;;;;13.33;57.34082;95904.17;;;;
2022/07/11 00:30:37;;;;;;;2.95;1.8;;;;;;;13.33;57.34082;95904.17;;;;
2022/07/11 00:31:37;;;;;;;2.95;1.8;;;;;;;13.33;57.34082;95904.17;;;;
2022/07/11 00:32:38;;;;;;;2.95;1.8;;;;;;;13.33;57.34082;95904.17;;;;
2022/07/11 00:33:38;;;;;;;2.95;1.8;;;;;;;13.33;57.34082;95904.17;;;;
2022/07/11 00:34:39;;;;;;;2.95;1.8;;;;;;;13.33;57.34082;95904.17;;;;
2022/07/11 00:35:40;;;;;;;2.95;1.8;;;;;;;13.33;57.34082;95904.17;;;;
2022/07/11 00:36:40;;;;;;;3;1.8;;;;;;;13.44;57.44238;95905.73;;;;
2022/07/11 00:37:40;;;;;;;3;1.8;;;;;;;13.44;57.44238;95905.73;;;;
2022/07/11 00:38:41;;;;;;;3;1.8;;;;;;;13.44;57.44238;95905.73;;;;
2022/07/11 00:39:41;;;;;;;3;1.8;;;;;;;13.44;57.44238;95905.73;;;;
2022/07/11 00:40:42;;;;;;;3;1.8;;;;;;;13.44;57.44238;95905.73;;;;
2022/07/11 00:41:42;;;;;;;3;1.8;;;;;;;13.44;57.44238;95905.73;;;;
2022/07/11 00:42:43;;;;;;;3;1.8;;;;;;;13.44;57.44238;95905.73;;;;
2022/07/11 00:43:43;;;;;;;3;1.8;;;;;;;13.44;57.44238;95905.73;;;;
2022/07/11 00:44:51;;;;;;;3;1.8;;;;;;;13.44;57.44238;95905.73;;;;
2022/07/11 00:45:51;;;;;;;3;1.8;;;;;;;13.44;57.44238;95905.73;;;;
2022/07/11 00:46:53;;;;;;;3;1.8;;;;;;;13.44;57.44238;95905.73;;;;
2022/07/11 00:47:55;;;;;;;2.5;1.5;;;;;;;13.61;57.70313;95896.73;;;;
2022/07/11 00:48:56;;;;;;;2.5;1.5;;;;;;;13.61;57.70313;95896.73;;;;
2022/07/11 00:49:57;;;;;;;2.5;1.5;;;;;;;13.61;57.70313;95896.73;;;;
2022/07/11 00:50:58;;;;;;;2.5;1.5;;;;;;;13.61;57.70313;95896.73;;;;
2022/07/11 00:52:01;;;;;;;2.5;1.5;;;;;;;13.61;57.70313;95896.73;;;;
2022/07/11 00:53:02;;;;;;;2.5;1.5;;;;;;;13.61;57.70313;95896.73;;;;
2022/07/11 00:54:02;;;;;;;2.5;1.5;;;;;;;13.61;57.70313;95896.73;;;;
2022/07/11 00:55:06;;;;;;;2.5;1.5;;;;;;;13.61;57.70313;95896.73;;;;
2022/07/11 00:56:09;;;;;;;2.5;1.5;;;;;;;13.61;57.70313;95896.73;;;;
2022/07/11 00:57:10;;;;;;;2.5;1.5;;;;;;;13.61;57.70313;95896.73;;;;
2022/07/11 00:58:10;;;;;;;1.9;1.7;;;;;;;13.7;57.91113;95891.47;;;;
2022/07/11 00:59:12;;;;;;;1.9;1.7;;;;;;;13.7;57.91113;95891.47;;;;
2022/07/11 01:00:14;;;;;;;1.9;1.7;;;;;;;13.7;57.91113;95891.47;;;;
2022/07/11 01:01:14;;;;;;;1.9;1.7;;;;;;;13.7;57.91113;95891.47;;;;
2022/07/11 01:02:15;;;;;;;1.9;1.7;;;;;;;13.7;57.91113;95891.47;;;;
2022/07/11 01:03:16;;;;;;;1.9;1.7;;;;;;;13.7;57.91113;95891.47;;;;
2022/07/11 01:04:16;;;;;;;1.9;1.7;;;;;;;13.7;57.91113;95891.47;;;;
2022/07/11 01:05:17;;;;;;;1.9;1.7;;;;;;;13.7;57.91113;95891.47;;;;
2022/07/11 01:06:18;;;;;;;1.9;1.7;;;;;;;13.7;57.91113;95891.47;;;;
2022/07/11 01:07:18;;;;;;;1.9;1.7;;;;;;;13.7;57.91113;95891.47;;;;
2022/07/11 01:08:20;;;;;;;1.9;1.7;;;;;;;13.7;57.91113;95891.47;;;;
2022/07/11 01:09:20;;;;;;;2.5;1.8;;;;;;;13.8;58.05566;95889.03;;;;
2022/07/11 01:10:21;;;;;;;2.5;1.8;;;;;;;13.8;58.05566;95889.03;;;;
2022/07/11 01:11:22;;;;;;;2.5;1.8;;;;;;;13.8;58.05566;95889.03;;;;
2022/07/11 01:12:23;;;;;;;2.5;1.8;;;;;;;13.8;58.05566;95889.03;;;;
2022/07/11 01:13:24;;;;;;;2.5;1.8;;;;;;;13.8;58.05566;95889.03;;;;
2022/07/11 01:14:24;;;;;;;2.5;1.8;;;;;;;13.8;58.05566;95889.03;;;;
2022/07/11 01:15:25;;;;;;;2.5;1.8;;;;;;;13.8;58.05566;95889.03;;;;
2022/07/11 01:16:25;;;;;;;2.5;1.8;;;;;;;13.8;58.05566;95889.03;;;;
2022/07/11 01:17:26;;;;;;;2.5;1.8;;;;;;;13.8;58.05566;95889.03;;;;
2022/07/11 01:18:27;;;;;;;2.5;1.8;;;;;;;13.8;58.05566;95889.03;;;;
2022/07/11 01:19:27;;;;;;;1.95;1.6;;;;;;;13.86;58.27051;95879.36;;;;
2022/07/11 01:20:28;;;;;;;1.95;1.6;;;;;;;13.86;58.27051;95879.36;;;;
2022/07/11 01:21:29;;;;;;;1.95;1.6;;;;;;;13.86;58.27051;95879.36;;;;
2022/07/11 01:22:31;;;;;;;1.95;1.6;;;;;;;13.86;58.27051;95879.36;;;;
2022/07/11 01:23:36;;;;;;;1.95;1.6;;;;;;;13.86;58.27051;95879.36;;;;
2022/07/11 01:24:36;;;;;;;1.95;1.6;;;;;;;13.86;58.27051;95879.36;;;;
2022/07/11 01:25:37;;;;;;;1.95;1.6;;;;;;;13.86;58.27051;95879.36;;;;
2022/07/11 01:26:38;;;;;;;1.95;1.6;;;;;;;13.86;58.27051;95879.36;;;;
2022/07/11 01:27:38;;;;;;;1.95;1.6;;;;;;;13.86;58.27051;95879.36;;;;
2022/07/11 01:28:39;;;;;;;1.95;1.6;;;;;;;13.86;58.27051;95879.36;;;;
2022/07/11 01:29:40;;;;;;;1.95;1.6;;;;;;;13.86;58.27051;95879.36;;;;
2022/07/11 01:30:40;;;;;;;1.85;1.65;;;;;;;13.94;58.50977;95879.11;;;;
2022/07/11 01:31:41;;;;;;;1.85;1.65;;;;;;;13.94;58.50977;95879.11;;;;
2022/07/11 01:32:42;;;;;;;1.85;1.65;;;;;;;13.94;58.50977;95879.11;;;;
2022/07/11 01:33:42;;;;;;;1.85;1.65;;;;;;;13.94;58.50977;95879.11;;;;
2022/07/11 01:34:43;;;;;;;1.85;1.65;;;;;;;13.94;58.50977;95879.11;;;;
2022/07/11 01:35:43;;;;;;;1.85;1.65;;;;;;;13.94;58.50977;95879.11;;;;
2022/07/11 01:36:44;;;;;;;1.85;1.65;;;;;;;13.94;58.50977;95879.11;;;;
2022/07/11 01:37:44;;;;;;;1.85;1.65;;;;;;;13.94;58.50977;95879.11;;;;
2022/07/11 01:38:45;;;;;;;1.85;1.65;;;;;;;13.94;58.50977;95879.11;;;;
2022/07/11 01:39:45;;;;;;;1.85;1.65;;;;;;;13.94;58.50977;95879.11;;;;
2022/07/11 01:40:46;;;;;;;1.85;1.65;;;;;;;13.94;58.50977;95879.11;;;;
2022/07/11 01:41:46;;;;;;;2.4;1.75;;;;;;;13.95;58.78418;95875;;;;
2022/07/11 01:42:47;;;;;;;2.4;1.75;;;;;;;13.95;58.78418;95875;;;;
2022/07/11 01:43:47;;;;;;;2.4;1.75;;;;;;;13.95;58.78418;95875;;;;
2022/07/11 01:44:48;;;;;;;2.4;1.75;;;;;;;13.95;58.78418;95875;;;;
2022/07/11 01:45:48;;;;;;;2.4;1.75;;;;;;;13.95;58.78418;95875;;;;
2022/07/11 01:46:50;;;;;;;2.4;1.75;;;;;;;13.95;58.78418;95875;;;;
2022/07/11 01:47:50;;;;;;;2.4;1.75;;;;;;;13.95;58.78418;95875;;;;
2022/07/11 01:48:51;;;;;;;2.4;1.75;;;;;;;13.95;58.78418;95875;;;;
2022/07/11 01:49:51;;;;;;;2.4;1.75;;;;;;;13.95;58.78418;95875;;;;
2022/07/11 01:50:52;;;;;;;2.4;1.75;;;;;;;13.95;58.78418;95875;;;;
2022/07/11 01:51:53;;;;;;;1.7;1.5;;;;;;;14.01;58.95508;95870.12;;;;
2022/07/11 01:52:54;;;;;;;1.7;1.5;;;;;;;14.01;58.95508;95870.12;;;;
2022/07/11 01:53:55;;;;;;;1.7;1.5;;;;;;;14.01;58.95508;95870.12;;;;
2022/07/11 01:54:55;;;;;;;1.7;1.5;;;;;;;14.01;58.95508;95870.12;;;;
2022/07/11 01:55:56;;;;;;;1.7;1.5;;;;;;;14.01;58.95508;95870.12;;;;
2022/07/11 01:56:56;;;;;;;1.7;1.5;;;;;;;14.01;58.95508;95870.12;;;;
2022/07/11 01:57:57;;;;;;;1.7;1.5;;;;;;;14.01;58.95508;95870.12;;;;
2022/07/11 01:58:57;;;;;;;1.7;1.5;;;;;;;14.01;58.95508;95870.12;;;;
2022/07/11 01:59:58;;;;;;;1.7;1.5;;;;;;;14.01;58.95508;95870.12;;;;
2022/07/11 02:00:58;;;;;;;1.7;1.5;;;;;;;14.01;58.95508;95870.12;;;;
2022/07/11 02:01:59;;;;;;;1.7;1.5;;;;;;;14.01;58.95508;95870.12;;;;
2022/07/11 02:02:59;;;;;;;2.2;1.6;;;;;;;14;59.2041;95871.17;;;;
2022/07/11 02:04:00;;;;;;;2.2;1.6;;;;;;;14;59.2041;95871.17;;;;
2022/07/11 02:05:01;;;;;;;2.2;1.6;;;;;;;14;59.2041;95871.17;;;;
2022/07/11 02:06:01;;;;;;;2.2;1.6;;;;;;;14;59.2041;95871.17;;;;
2022/07/11 02:07:02;;;;;;;2.2;1.6;;;;;;;14;59.2041;95871.17;;;;
2022/07/11 02:08:18;;;;;;;2.2;1.6;;;;;;;14;59.2041;95871.17;;;;
2022/07/11 02:09:18;;;;;;;2.2;1.6;;;;;;;14;59.2041;95871.17;;;;
2022/07/11 02:10:19;;;;;;;2.2;1.6;;;;;;;14;59.2041;95871.17;;;;
2022/07/11 02:11:20;;;;;;;2.2;1.6;;;;;;;14;59.2041;95871.17;;;;
2022/07/11 02:12:20;;;;;;;2.2;1.6;;;;;;;14;59.2041;95871.17;;;;
2022/07/11 02:13:20;;;;;;;2.05;1.6;;;;;;;14.08;59.26953;95847.79;;;;
2022/07/11 02:14:22;;;;;;;2.05;1.6;;;;;;;14.08;59.26953;95847.79;;;;
2022/07/11 02:15:23;;;;;;;2.05;1.6;;;;;;;14.08;59.26953;95847.79;;;;
2022/07/11 02:16:24;;;;;;;2.05;1.6;;;;;;;14.08;59.26953;95847.79;;;;
2022/07/11 02:17:24;;;;;;;2.05;1.6;;;;;;;14.08;59.26953;95847.79;;;;
2022/07/11 02:18:25;;;;;;;2.05;1.6;;;;;;;14.08;59.26953;95847.79;;;;
2022/07/11 02:19:25;;;;;;;2.05;1.6;;;;;;;14.08;59.26953;95847.79;;;;
2022/07/11 02:20:26;;;;;;;2.05;1.6;;;;;;;14.08;59.26953;95847.79;;;;
2022/07/11 02:21:26;;;;;;;2.05;1.6;;;;;;;14.08;59.26953;95847.79;;;;
2022/07/11 02:22:29;;;;;;;2.05;1.6;;;;;;;14.08;59.26953;95847.79;;;;
2022/07/11 02:23:30;;;;;;;2.05;1.6;;;;;;;14.08;59.26953;95847.79;;;;
2022/07/11 02:24:30;;;;;;;2.2;1.7;;;;;;;14.06;59.44141;95849.44;;;;
2022/07/11 02:25:31;;;;;;;2.2;1.7;;;;;;;14.06;59.44141;95849.44;;;;
2022/07/11 02:26:31;;;;;;;2.2;1.7;;;;;;;14.06;59.44141;95849.44;;;;
2022/07/11 02:27:32;;;;;;;2.2;1.7;;;;;;;14.06;59.44141;95849.44;;;;
2022/07/11 02:28:34;;;;;;;2.2;1.7;;;;;;;14.06;59.44141;95849.44;;;;
2022/07/11 02:29:34;;;;;;;2.2;1.7;;;;;;;14.06;59.44141;95849.44;;;;
2022/07/11 02:30:35;;;;;;;2.2;1.7;;;;;;;14.06;59.44141;95849.44;;;;
2022/07/11 02:31:35;;;;;;;2.2;1.7;;;;;;;14.06;59.44141;95849.44;;;;
2022/07/11 02:32:36;;;;;;;2.2;1.7;;;;;;;14.06;59.44141;95849.44;;;;
2022/07/11 02:33:37;;;;;;;2.2;1.7;;;;;;;14.06;59.44141;95849.44;;;;
2022/07/11 02:34:37;;;;;;;2.15;1.55;;;;;;;14.1;59.61035;95847.03;;;;
2022/07/11 02:35:38;;;;;;;2.15;1.55;;;;;;;14.1;59.61035;95847.03;;;;
2022/07/11 02:36:38;;;;;;;2.15;1.55;;;;;;;14.1;59.61035;95847.03;;;;
2022/07/11 02:37:39;;;;;;;2.15;1.55;;;;;;;14.1;59.61035;95847.03;;;;
2022/07/11 02:38:39;;;;;;;2.15;1.55;;;;;;;14.1;59.61035;95847.03;;;;
2022/07/11 02:39:41;;;;;;;2.15;1.55;;;;;;;14.1;59.61035;95847.03;;;;
2022/07/11 02:40:42;;;;;;;2.15;1.55;;;;;;;14.1;59.61035;95847.03;;;;
2022/07/11 02:41:42;;;;;;;2.15;1.55;;;;;;;14.1;59.61035;95847.03;;;;
2022/07/11 02:42:42;;;;;;;2.15;1.55;;;;;;;14.1;59.61035;95847.03;;;;
2022/07/11 02:43:43;;;;;;;2.15;1.55;;;;;;;14.1;59.61035;95847.03;;;;
2022/07/11 02:44:44;;;;;;;2.15;1.55;;;;;;;14.1;59.61035;95847.03;;;;
2022/07/11 02:45:44;;;;;;;3.45;1.7;;;;;;;14.05;59.75488;95841.58;;;;
2022/07/11 02:46:45;;;;;;;3.45;1.7;;;;;;;14.05;59.75488;95841.58;;;;
2022/07/11 02:47:45;;;;;;;3.45;1.7;;;;;;;14.05;59.75488;95841.58;;;;
2022/07/11 02:48:46;;;;;;;3.45;1.7;;;;;;;14.05;59.75488;95841.58;;;;
2022/07/11 02:49:48;;;;;;;3.45;1.7;;;;;;;14.05;59.75488;95841.58;;;;
2022/07/11 02:50:48;;;;;;;3.45;1.7;;;;;;;14.05;59.75488;95841.58;;;;
2022/07/11 02:51:49;;;;;;;3.45;1.7;;;;;;;14.05;59.75488;95841.58;;;;
2022/07/11 02:52:49;;;;;;;3.45;1.7;;;;;;;14.05;59.75488;95841.58;;;;
2022/07/11 02:53:49;;;;;;;3.45;1.7;;;;;;;14.05;59.75488;95841.58;;;;
2022/07/11 02:54:50;;;;;;;3.45;1.7;;;;;;;14.05;59.75488;95841.58;;;;
2022/07/11 02:55:50;;;;;;;3.45;1.7;;;;;;;14.05;59.75488;95841.58;;;;
2022/07/11 02:56:51;;;;;;;2.45;1.55;;;;;;;14.06;59.84473;95853.42;;;;
2022/07/11 02:57:51;;;;;;;2.45;1.55;;;;;;;14.06;59.84473;95853.42;;;;
2022/07/11 02:58:52;;;;;;;2.45;1.55;;;;;;;14.06;59.84473;95853.42;;;;
2022/07/11 02:59:52;;;;;;;2.45;1.55;;;;;;;14.06;59.84473;95853.42;;;;
2022/07/11 03:00:53;;;;;;;2.45;1.55;;;;;;;14.06;59.84473;95853.42;;;;
2022/07/11 03:01:54;;;;;;;2.45;1.55;;;;;;;14.06;59.84473;95853.42;;;;
2022/07/11 03:02:54;;;;;;;2.45;1.55;;;;;;;14.06;59.84473;95853.42;;;;
2022/07/11 03:03:55;;;;;;;2.45;1.55;;;;;;;14.06;59.84473;95853.42;;;;
2022/07/11 03:04:57;;;;;;;2.45;1.55;;;;;;;14.06;59.84473;95853.42;;;;
2022/07/11 03:05:58;;;;;;;2.45;1.55;;;;;;;14.06;59.84473;95853.42;;;;
2022/07/11 03:06:58;;;;;;;1.8;1.6;;;;;;;14.05;59.92969;95845.67;;;;
2022/07/11 03:07:59;;;;;;;1.8;1.6;;;;;;;14.05;59.92969;95845.67;;;;
2022/07/11 03:09:00;;;;;;;1.8;1.6;;;;;;;14.05;59.92969;95845.67;;;;
2022/07/11 03:10:00;;;;;;;1.8;1.6;;;;;;;14.05;59.92969;95845.67;;;;
2022/07/11 03:11:01;;;;;;;1.8;1.6;;;;;;;14.05;59.92969;95845.67;;;;
2022/07/11 03:12:01;;;;;;;1.8;1.6;;;;;;;14.05;59.92969;95845.67;;;;
2022/07/11 03:13:03;;;;;;;1.8;1.6;;;;;;;14.05;59.92969;95845.67;;;;
2022/07/11 03:14:03;;;;;;;1.8;1.6;;;;;;;14.05;59.92969;95845.67;;;;
2022/07/11 03:15:04;;;;;;;1.8;1.6;;;;;;;14.05;59.92969;95845.67;;;;
2022/07/11 03:16:06;;;;;;;1.8;1.6;;;;;;;14.05;59.92969;95845.67;;;;
2022/07/11 03:17:07;;;;;;;1.8;1.6;;;;;;;14.05;59.92969;95845.67;;;;
2022/07/11 03:18:07;;;;;;;2.4;1.6;;;;;;;14.08;60.02051;95848.3;;;;
2022/07/11 03:19:08;;;;;;;2.4;1.6;;;;;;;14.08;60.02051;95848.3;;;;
2022/07/11 03:20:08;;;;;;;2.4;1.6;;;;;;;14.08;60.02051;95848.3;;;;
2022/07/11 03:21:10;;;;;;;2.4;1.6;;;;;;;14.08;60.02051;95848.3;;;;
2022/07/11 03:22:11;;;;;;;2.4;1.6;;;;;;;14.08;60.02051;95848.3;;;;
2022/07/11 03:23:11;;;;;;;2.4;1.6;;;;;;;14.08;60.02051;95848.3;;;;
2022/07/11 03:24:12;;;;;;;2.4;1.6;;;;;;;14.08;60.02051;95848.3;;;;
2022/07/11 03:25:12;;;;;;;2.4;1.6;;;;;;;14.08;60.02051;95848.3;;;;
2022/07/11 03:26:13;;;;;;;2.4;1.6;;;;;;;14.08;60.02051;95848.3;;;;
2022/07/11 03:27:13;;;;;;;2.4;1.6;;;;;;;14.08;60.02051;95848.3;;;;
2022/07/11 03:28:14;;;;;;;2.8;1.7;;;;;;;14.08;60.06348;95838.58;;;;
2022/07/11 03:29:14;;;;;;;2.8;1.7;;;;;;;14.08;60.06348;95838.58;;;;
2022/07/11 03:30:14;;;;;;;2.8;1.7;;;;;;;14.08;60.06348;95838.58;;;;
2022/07/11 03:31:15;;;;;;;2.8;1.7;;;;;;;14.08;60.06348;95838.58;;;;
2022/07/11 03:32:16;;;;;;;2.8;1.7;;;;;;;14.08;60.06348;95838.58;;;;
2022/07/11 03:33:16;;;;;;;2.8;1.7;;;;;;;14.08;60.06348;95838.58;;;;
2022/07/11 03:34:17;;;;;;;2.8;1.7;;;;;;;14.08;60.06348;95838.58;;;;
2022/07/11 03:35:49;;;;;;;2.8;1.7;;;;;;;14.08;60.06348;95838.58;;;;
2022/07/11 03:36:50;;;;;;;2.8;1.7;;;;;;;14.08;60.06348;95838.58;;;;
2022/07/11 03:37:50;;;;;;;2.8;1.7;;;;;;;14.08;60.06348;95838.58;;;;
2022/07/11 03:38:51;;;;;;;2.5;1.8;;;;;;;14.14;60.19238;95842.5;;;;
2022/07/11 03:39:51;;;;;;;2.5;1.8;;;;;;;14.14;60.19238;95842.5;;;;
2022/07/11 03:40:53;;;;;;;2.5;1.8;;;;;;;14.14;60.19238;95842.5;;;;
2022/07/11 03:41:54;;;;;;;2.5;1.8;;;;;;;14.14;60.19238;95842.5;;;;
2022/07/11 03:42:54;;;;;;;2.5;1.8;;;;;;;14.14;60.19238;95842.5;;;;
2022/07/11 03:43:56;;;;;;;2.5;1.8;;;;;;;14.14;60.19238;95842.5;;;;
2022/07/11 03:44:56;;;;;;;2.5;1.8;;;;;;;14.14;60.19238;95842.5;;;;
2022/07/11 03:45:57;;;;;;;2.5;1.8;;;;;;;14.14;60.19238;95842.5;;;;
2022/07/11 03:46:57;;;;;;;2.5;1.8;;;;;;;14.14;60.19238;95842.5;;;;
2022/07/11 03:47:58;;;;;;;2.5;1.8;;;;;;;14.14;60.19238;95842.5;;;;
2022/07/11 03:48:58;;;;;;;2.5;1.8;;;;;;;14.14;60.19238;95842.5;;;;
2022/07/11 03:50:00;;;;;;;3;1.8;;;;;;;14.13;60.18066;95841.82;;;;
2022/07/11 03:51:00;;;;;;;3;1.8;;;;;;;14.13;60.18066;95841.82;;;;
2022/07/11 03:52:01;;;;;;;3;1.8;;;;;;;14.13;60.18066;95841.82;;;;
2022/07/11 03:53:02;;;;;;;3;1.8;;;;;;;14.13;60.18066;95841.82;;;;
2022/07/11 03:54:02;;;;;;;3;1.8;;;;;;;14.13;60.18066;95841.82;;;;
2022/07/11 03:55:03;;;;;;;3;1.8;;;;;;;14.13;60.18066;95841.82;;;;
2022/07/11 03:56:04;;;;;;;3;1.8;;;;;;;14.13;60.18066;95841.82;;;;
2022/07/11 03:57:05;;;;;;;3;1.8;;;;;;;14.13;60.18066;95841.82;;;;
2022/07/11 03:58:06;;;;;;;3;1.8;;;;;;;14.13;60.18066;95841.82;;;;
2022/07/11 03:59:07;;;;;;;3;1.8;;;;;;;14.13;60.18066;95841.82;;;;
2022/07/11 04:00:08;;;;;;;3;1.8;;;;;;;14.13;60.18066;95841.82;;;;
2022/07/11 04:01:10;;;;;;;2;1.8;;;;;;;14.25;60.25195;95838.73;;;;
2022/07/11 04:02:10;;;;;;;2;1.8;;;;;;;14.25;60.25195;95838.73;;;;
2022/07/11 04:03:11;;;;;;;2;1.8;;;;;;;14.25;60.25195;95838.73;;;;
2022/07/11 04:04:11;;;;;;;2;1.8;;;;;;;14.25;60.25195;95838.73;;;;
2022/07/11 04:05:12;;;;;;;2;1.8;;;;;;;14.25;60.25195;95838.73;;;;
2022/07/11 04:06:13;;;;;;;2;1.8;;;;;;;14.25;60.25195;95838.73;;;;
2022/07/11 04:07:13;;;;;;;2;1.8;;;;;;;14.25;60.25195;95838.73;;;;
2022/07/11 04:08:14;;;;;;;2;1.8;;;;;;;14.25;60.25195;95838.73;;;;
2022/07/11 04:09:14;;;;;;;2;1.8;;;;;;;14.25;60.25195;95838.73;;;;
2022/07/11 04:10:17;;;;;;;2;1.8;;;;;;;14.25;60.25195;95838.73;;;;
2022/07/11 04:11:17;;;;;;;5.45;1.7;;;;;;;14.35;60.2207;95841.28;;;;
2022/07/11 04:12:18;;;;;;;5.45;1.7;;;;;;;14.35;60.2207;95841.28;;;;
2022/07/11 04:13:18;;;;;;;5.45;1.7;;;;;;;14.35;60.2207;95841.28;;;;
2022/07/11 04:14:19;;;;;;;5.45;1.7;;;;;;;14.35;60.2207;95841.28;;;;
2022/07/11 04:15:19;;;;;;;5.45;1.7;;;;;;;14.35;60.2207;95841.28;;;;
2022/07/11 04:16:20;;;;;;;5.45;1.7;;;;;;;14.35;60.2207;95841.28;;;;
2022/07/11 04:17:21;;;;;;;5.45;1.7;;;;;;;14.35;60.2207;95841.28;;;;
2022/07/11 04:18:21;;;;;;;5.45;1.7;;;;;;;14.35;60.2207;95841.28;;;;
2022/07/11 04:19:23;;;;;;;5.45;1.7;;;;;;;14.35;60.2207;95841.28;;;;
2022/07/11 04:20:24;;;;;;;5.45;1.7;;;;;;;14.35;60.2207;95841.28;;;;
2022/07/11 04:21:24;;;;;;;5.45;1.7;;;;;;;14.35;60.2207;95841.28;;;;
2022/07/11 04:22:25;;;;;;;3.35;1.6;;;;;;;14.53;60.12695;95844.78;;;;
2022/07/11 04:23:26;;;;;;;3.35;1.6;;;;;;;14.53;60.12695;95844.78;;;;
2022/07/11 04:24:26;;;;;;;3.35;1.6;;;;;;;14.53;60.12695;95844.78;;;;
2022/07/11 04:25:26;;;;;;;3.35;1.6;;;;;;;14.53;60.12695;95844.78;;;;
2022/07/11 04:26:27;;;;;;;3.35;1.6;;;;;;;14.53;60.12695;95844.78;;;;
2022/07/11 04:27:29;;;;;;;3.35;1.6;;;;;;;14.53;60.12695;95844.78;;;;
2022/07/11 04:28:30;;;;;;;3.35;1.6;;;;;;;14.53;60.12695;95844.78;;;;
2022/07/11 04:29:31;;;;;;;3.35;1.6;;;;;;;14.53;60.12695;95844.78;;;;
2022/07/11 04:30:32;;;;;;;3.35;1.6;;;;;;;14.53;60.12695;95844.78;;;;
2022/07/11 04:31:33;;;;;;;3.35;1.6;;;;;;;14.53;60.12695;95844.78;;;;
2022/07/11 04:32:35;;;;;;;2.85;1.4;;;;;;;14.6;60.10254;95842.46;;;;
2022/07/11 04:33:36;;;;;;;2.85;1.4;;;;;;;14.6;60.10254;95842.46;;;;
2022/07/11 04:34:36;;;;;;;2.85;1.4;;;;;;;14.6;60.10254;95842.46;;;;
2022/07/11 04:35:37;;;;;;;2.85;1.4;;;;;;;14.6;60.10254;95842.46;;;;
2022/07/11 04:36:37;;;;;;;2.85;1.4;;;;;;;14.6;60.10254;95842.46;;;;
2022/07/11 04:37:38;;;;;;;2.85;1.4;;;;;;;14.6;60.10254;95842.46;;;;
2022/07/11 04:38:38;;;;;;;2.85;1.4;;;;;;;14.6;60.10254;95842.46;;;;
2022/07/11 04:39:39;;;;;;;2.85;1.4;;;;;;;14.6;60.10254;95842.46;;;;
2022/07/11 04:40:39;;;;;;;2.85;1.4;;;;;;;14.6;60.10254;95842.46;;;;
2022/07/11 04:41:40;;;;;;;2.85;1.4;;;;;;;14.6;60.10254;95842.46;;;;
2022/07/11 04:42:40;;;;;;;2.85;1.4;;;;;;;14.6;60.10254;95842.46;;;;
2022/07/11 04:43:41;;;;;;;4.3;1.8;;;;;;;14.82;60.08984;95843.59;;;;
2022/07/11 04:44:41;;;;;;;4.3;1.8;;;;;;;14.82;60.08984;95843.59;;;;
2022/07/11 04:45:42;;;;;;;4.3;1.8;;;;;;;14.82;60.08984;95843.59;;;;
2022/07/11 04:46:43;;;;;;;4.3;1.8;;;;;;;14.82;60.08984;95843.59;;;;
2022/07/11 04:47:43;;;;;;;4.3;1.8;;;;;;;14.82;60.08984;95843.59;;;;
2022/07/11 04:48:44;;;;;;;4.3;1.8;;;;;;;14.82;60.08984;95843.59;;;;
2022/07/11 04:49:46;;;;;;;4.3;1.8;;;;;;;14.82;60.08984;95843.59;;;;
2022/07/11 04:50:47;;;;;;;4.3;1.8;;;;;;;14.82;60.08984;95843.59;;;;
2022/07/11 04:51:47;;;;;;;4.3;1.8;;;;;;;14.82;60.08984;95843.59;;;;
2022/07/11 04:52:47;;;;;;;4.3;1.8;;;;;;;14.82;60.08984;95843.59;;;;
2022/07/11 04:53:48;;;;;;;4.3;1.7;;;;;;;15.08;60.16797;95847.75;;;;
2022/07/11 04:54:48;;;;;;;4.3;1.7;;;;;;;15.08;60.16797;95847.75;;;;
2022/07/11 04:55:49;;;;;;;4.3;1.7;;;;;;;15.08;60.16797;95847.75;;;;
2022/07/11 04:56:49;;;;;;;4.3;1.7;;;;;;;15.08;60.16797;95847.75;;;;
2022/07/11 04:57:50;;;;;;;4.3;1.7;;;;;;;15.08;60.16797;95847.75;;;;
2022/07/11 04:58:51;;;;;;;4.3;1.7;;;;;;;15.08;60.16797;95847.75;;;;
2022/07/11 04:59:51;;;;;;;4.3;1.7;;;;;;;15.08;60.16797;95847.75;;;;
2022/07/11 05:00:52;;;;;;;4.3;1.7;;;;;;;15.08;60.16797;95847.75;;;;
2022/07/11 05:01:52;;;;;;;4.3;1.7;;;;;;;15.08;60.16797;95847.75;;;;
2022/07/11 05:02:55;;;;;;;4.3;1.7;;;;;;;15.08;60.16797;95847.75;;;;
2022/07/11 05:03:56;;;;;;;4.3;1.7;;;;;;;15.08;60.16797;95847.75;;;;
2022/07/11 05:04:57;;;;;;;2.3;1.5;;;;;;;15.48;59.92676;95848.46;;;;
2022/07/11 05:05:57;;;;;;;2.3;1.5;;;;;;;15.48;59.92676;95848.46;;;;
2022/07/11 05:06:58;;;;;;;2.3;1.5;;;;;;;15.48;59.92676;95848.46;;;;
2022/07/11 05:07:58;;;;;;;2.3;1.5;;;;;;;15.48;59.92676;95848.46;;;;
2022/07/11 05:08:59;;;;;;;2.3;1.5;;;;;;;15.48;59.92676;95848.46;;;;
2022/07/11 05:09:59;;;;;;;2.3;1.5;;;;;;;15.48;59.92676;95848.46;;;;
2022/07/11 05:11:00;;;;;;;2.3;1.5;;;;;;;15.48;59.92676;95848.46;;;;
2022/07/11 05:12:02;;;;;;;2.3;1.5;;;;;;;15.48;59.92676;95848.46;;;;
2022/07/11 05:13:03;;;;;;;2.3;1.5;;;;;;;15.48;59.92676;95848.46;;;;
2022/07/11 05:14:03;;;;;;;2.3;1.5;;;;;;;15.48;59.92676;95848.46;;;;
2022/07/11 05:15:04;;;;;;;2.3;1.5;;;;;;;15.48;59.92676;95848.46;;;;
2022/07/11 05:16:05;;;;;;;2.4;1.6;;;;;;;15.89;59.33887;95859.06;;;;
2022/07/11 05:17:07;;;;;;;2.4;1.6;;;;;;;15.89;59.33887;95859.06;;;;
2022/07/11 05:18:07;;;;;;;2.4;1.6;;;;;;;15.89;59.33887;95859.06;;;;
2022/07/11 05:19:08;;;;;;;2.4;1.6;;;;;;;15.89;59.33887;95859.06;;;;
2022/07/11 05:20:08;;;;;;;2.4;1.6;;;;;;;15.89;59.33887;95859.06;;;;
2022/07/11 05:21:10;;;;;;;2.4;1.6;;;;;;;15.89;59.33887;95859.06;;;;
2022/07/11 05:22:10;;;;;;;2.4;1.6;;;;;;;15.89;59.33887;95859.06;;;;
2022/07/11 05:23:11;;;;;;;2.4;1.6;;;;;;;15.89;59.33887;95859.06;;;;
2022/07/11 05:24:11;;;;;;;2.4;1.6;;;;;;;15.89;59.33887;95859.06;;;;
2022/07/11 05:25:12;;;;;;;2.4;1.6;;;;;;;15.89;59.33887;95859.06;;;;
2022/07/11 05:26:14;;;;;;;2.4;1.8;;;;;;;16.38;58.99902;95868.77;;;;
2022/07/11 05:27:14;;;;;;;2.4;1.8;;;;;;;16.38;58.99902;95868.77;;;;
2022/07/11 05:28:15;;;;;;;2.4;1.8;;;;;;;16.38;58.99902;95868.77;;;;
2022/07/11 05:29:15;;;;;;;2.4;1.8;;;;;;;16.38;58.99902;95868.77;;;;
2022/07/11 05:30:16;;;;;;;2.4;1.8;;;;;;;16.38;58.99902;95868.77;;;;
2022/07/11 05:31:17;;;;;;;2.4;1.8;;;;;;;16.38;58.99902;95868.77;;;;
2022/07/11 05:32:17;;;;;;;2.4;1.8;;;;;;;16.38;58.99902;95868.77;;;;
2022/07/11 05:33:18;;;;;;;2.4;1.8;;;;;;;16.38;58.99902;95868.77;;;;
2022/07/11 05:34:18;;;;;;;2.4;1.8;;;;;;;16.38;58.99902;95868.77;;;;
2022/07/11 05:35:19;;;;;;;2.4;1.8;;;;;;;16.38;58.99902;95868.77;;;;
2022/07/11 05:36:19;;;;;;;2.4;1.8;;;;;;;16.38;58.99902;95868.77;;;;
2022/07/11 05:37:20;;;;;;;4.7;1.9;;;;;;;16.84;58.64355;95871.11;;;;
2022/07/11 05:38:20;;;;;;;4.7;1.9;;;;;;;16.84;58.64355;95871.11;;;;
2022/07/11 05:39:21;;;;;;;4.7;1.9;;;;;;;16.84;58.64355;95871.11;;;;
2022/07/11 05:40:21;;;;;;;4.7;1.9;;;;;;;16.84;58.64355;95871.11;;;;
2022/07/11 05:41:22;;;;;;;4.7;1.9;;;;;;;16.84;58.64355;95871.11;;;;
2022/07/11 05:42:22;;;;;;;4.7;1.9;;;;;;;16.84;58.64355;95871.11;;;;
2022/07/11 05:43:23;;;;;;;4.7;1.9;;;;;;;16.84;58.64355;95871.11;;;;
2022/07/11 05:44:24;;;;;;;4.7;1.9;;;;;;;16.84;58.64355;95871.11;;;;
2022/07/11 05:45:24;;;;;;;4.7;1.9;;;;;;;16.84;58.64355;95871.11;;;;
2022/07/11 05:46:25;;;;;;;4.7;1.9;;;;;;;16.84;58.64355;95871.11;;;;
2022/07/11 05:47:25;;;;;;;2;1.7;;;;;;;17.41;58.20215;95879.05;;;;
2022/07/11 05:48:26;;;;;;;2;1.7;;;;;;;17.41;58.20215;95879.05;;;;
2022/07/11 05:49:26;;;;;;;2;1.7;;;;;;;17.41;58.20215;95879.05;;;;
2022/07/11 05:50:27;;;;;;;2;1.7;;;;;;;17.41;58.20215;95879.05;;;;
2022/07/11 05:51:28;;;;;;;2;1.7;;;;;;;17.41;58.20215;95879.05;;;;
2022/07/11 05:52:28;;;;;;;2;1.7;;;;;;;17.41;58.20215;95879.05;;;;
2022/07/11 05:53:29;;;;;;;2;1.7;;;;;;;17.41;58.20215;95879.05;;;;
2022/07/11 05:54:29;;;;;;;2;1.7;;;;;;;17.41;58.20215;95879.05;;;;